createdAt,value
2019-04-14T00:01:17.259Z,3.20
2019-04-14T00:03:47.650Z,3.10
2019-04-14T00:06:18.079Z,3.10
2019-04-14T00:08:47.955Z,3.10
2019-04-14T00:11:17.333Z,3.10
2019-04-14T00:13:47.759Z,3.10
2019-04-14T00:16:16.450Z,3.00
2019-04-14T00:18:46.880Z,3.00
2019-04-14T00:21:17.267Z,3.00
2019-04-14T00:23:47.900Z,2.90
2019-04-14T00:26:27.203Z,2.90
2019-04-14T00:28:57.895Z,2.90
2019-04-14T00:31:28.706Z,2.90
2019-04-14T00:34:00.770Z,2.90
2019-04-14T00:36:32.595Z,2.90
2019-04-14T00:39:05.320Z,2.90
2019-04-14T00:41:58.215Z,2.90
2019-04-14T00:44:43.000Z,2.90
2019-04-14T00:47:20.047Z,2.80
2019-04-14T00:49:50.774Z,2.80
2019-04-14T00:52:21.160Z,2.70
2019-04-14T00:54:50.604Z,2.70
2019-04-14T00:57:20.140Z,2.70
2019-04-14T00:59:50.784Z,2.70
2019-04-14T01:02:21.254Z,2.60
2019-04-14T01:04:51.376Z,2.60
2019-04-14T01:07:21.627Z,2.60
2019-04-14T01:09:55.358Z,2.60
2019-04-14T01:12:25.753Z,2.60
2019-04-14T01:14:55.988Z,2.70
2019-04-14T01:17:26.505Z,2.70
2019-04-14T01:19:56.961Z,2.80
2019-04-14T01:22:27.078Z,2.80
2019-04-14T01:24:57.470Z,2.70
2019-04-14T01:27:27.787Z,2.70
2019-04-14T01:30:02.695Z,2.70
2019-04-14T01:32:32.727Z,2.70
2019-04-14T01:35:03.381Z,2.70
2019-04-14T01:37:33.293Z,2.70
2019-04-14T01:40:07.437Z,2.80
2019-04-14T01:42:37.744Z,2.70
2019-04-14T01:45:08.133Z,2.70
2019-04-14T01:47:37.727Z,2.60
2019-04-14T01:50:08.307Z,2.60
2019-04-14T01:52:52.274Z,2.50
2019-04-14T01:55:33.039Z,2.50
2019-04-14T01:58:05.303Z,2.50
2019-04-14T02:00:51.393Z,2.50
2019-04-14T02:03:21.723Z,2.50
2019-04-14T02:05:51.726Z,2.50
2019-04-14T02:08:21.998Z,2.60
2019-04-14T02:10:52.055Z,2.50
2019-04-14T02:13:22.539Z,2.40
2019-04-14T02:15:52.870Z,2.50
2019-04-14T02:18:22.933Z,2.50
2019-04-14T02:20:53.487Z,2.40
2019-04-14T02:23:23.523Z,2.50
2019-04-14T02:25:53.628Z,2.50
2019-04-14T02:28:24.242Z,2.50
2019-04-14T02:31:08.244Z,2.50
2019-04-14T02:41:29.983Z,2.30
2019-04-14T02:44:01.670Z,2.20
2019-04-14T02:46:35.715Z,2.20
2019-04-14T02:51:27.575Z,2.30
2019-04-14T02:54:06.811Z,2.30
2019-04-14T02:56:43.434Z,2.30
2019-04-14T02:58:58.580Z,2.30
2019-04-14T03:01:31.633Z,2.30
2019-04-14T03:03:57.910Z,2.30
2019-04-14T03:06:50.404Z,2.40
2019-04-14T03:09:15.343Z,2.50
2019-04-14T03:11:32.653Z,2.50
2019-04-14T03:14:11.784Z,2.50
2019-04-14T03:17:06.140Z,2.50
2019-04-14T03:19:30.880Z,2.40
2019-04-14T03:22:07.515Z,2.40
2019-04-14T03:24:39.100Z,2.40
2019-04-14T03:27:22.821Z,2.40
2019-04-14T03:35:03.589Z,2.20
2019-04-14T03:40:00.962Z,2.00
2019-04-14T03:42:37.695Z,2.00
2019-04-14T03:45:11.147Z,2.00
2019-04-14T03:50:06.166Z,1.90
2019-04-14T03:52:40.829Z,1.90
2019-04-14T03:54:57.095Z,1.80
2019-04-14T03:57:10.457Z,1.90
2019-04-14T03:59:39.865Z,1.80
2019-04-14T04:02:09.675Z,1.80
2019-04-14T04:04:40.150Z,1.80
2019-04-14T04:07:10.320Z,1.80
2019-04-14T04:09:49.636Z,1.80
2019-04-14T04:12:20.278Z,1.80
2019-04-14T04:14:48.982Z,1.70
2019-04-14T04:17:23.259Z,1.70
2019-04-14T04:19:57.668Z,1.70
2019-04-14T04:22:45.593Z,1.60
2019-04-14T04:25:20.369Z,1.80
2019-04-14T04:27:56.892Z,1.80
2019-04-14T04:30:34.111Z,1.90
2019-04-14T04:33:19.965Z,2.10
2019-04-14T04:36:01.093Z,2.20
2019-04-14T04:38:33.332Z,2.20
2019-04-14T04:41:03.756Z,2.30
2019-04-14T04:43:34.111Z,2.30
2019-04-14T04:46:04.894Z,2.30
2019-04-14T04:48:34.970Z,2.30
2019-04-14T04:51:05.005Z,2.40
2019-04-14T04:53:35.344Z,2.50
2019-04-14T04:56:05.733Z,2.50
2019-04-14T04:58:34.859Z,2.50
2019-04-14T05:01:04.133Z,2.60
2019-04-14T05:03:34.493Z,2.50
2019-04-14T05:06:35.359Z,2.60
2019-04-14T05:09:07.917Z,2.60
2019-04-14T05:11:39.017Z,2.60
2019-04-14T05:14:26.340Z,2.70
2019-04-14T05:16:55.691Z,2.70
2019-04-14T05:19:31.147Z,2.70
2019-04-14T05:21:55.967Z,2.70
2019-04-14T05:24:25.269Z,2.80
2019-04-14T05:26:54.877Z,2.80
2019-04-14T05:29:31.840Z,2.90
2019-04-14T05:32:02.357Z,3.00
2019-04-14T05:34:32.651Z,3.00
2019-04-14T05:37:02.891Z,3.10
2019-04-14T05:39:32.924Z,3.10
2019-04-14T05:42:08.622Z,3.20
2019-04-14T05:44:34.046Z,3.20
2019-04-14T05:47:04.400Z,3.30
2019-04-14T05:49:39.168Z,3.30
2019-04-14T05:52:05.588Z,3.40
2019-04-14T05:54:36.025Z,3.50
2019-04-14T05:57:06.514Z,3.50
2019-04-14T05:59:37.521Z,3.60
2019-04-14T06:02:07.268Z,3.60
2019-04-14T06:04:37.389Z,3.60
2019-04-14T06:07:06.724Z,3.70
2019-04-14T06:09:36.070Z,3.80
2019-04-14T06:12:05.366Z,3.90
2019-04-14T06:14:34.697Z,3.90
2019-04-14T06:17:04.003Z,3.90
2019-04-14T06:19:38.118Z,3.90
2019-04-14T06:22:04.396Z,4.00
2019-04-14T06:24:33.721Z,4.10
2019-04-14T06:27:03.046Z,4.20
2019-04-14T06:29:32.348Z,4.40
2019-04-14T06:32:03.474Z,4.50
2019-04-14T06:34:34.423Z,4.50
2019-04-14T06:37:23.790Z,4.50
2019-04-14T06:40:02.791Z,4.60
2019-04-14T06:42:32.111Z,4.70
2019-04-14T06:45:02.837Z,4.80
2019-04-14T06:47:32.205Z,4.70
2019-04-14T06:50:02.836Z,4.80
2019-04-14T06:52:31.347Z,4.90
2019-04-14T06:55:00.592Z,5.00
2019-04-14T06:57:30.386Z,5.30
2019-04-14T07:00:00.655Z,5.70
2019-04-14T07:02:30.150Z,5.50
2019-04-14T07:04:59.507Z,5.70
2019-04-14T07:07:28.834Z,5.80
2019-04-14T07:10:04.888Z,6.10
2019-04-14T07:12:35.359Z,6.50
2019-04-14T07:15:07.156Z,6.80
2019-04-14T07:17:36.451Z,7.00
2019-04-14T07:20:13.183Z,7.00
2019-04-14T07:22:48.632Z,7.40
2019-04-14T07:25:17.951Z,7.60
2019-04-14T07:27:47.255Z,7.60
2019-04-14T07:30:24.343Z,7.60
2019-04-14T07:32:57.815Z,7.70
2019-04-14T07:35:43.405Z,7.40
2019-04-14T07:38:23.242Z,7.50
2019-04-14T07:41:06.085Z,7.80
2019-04-14T07:43:37.041Z,7.80
2019-04-14T07:46:22.275Z,7.70
2019-04-14T07:48:53.151Z,7.60
2019-04-14T07:51:33.310Z,7.70
2019-04-14T07:54:07.387Z,7.90
2019-04-14T07:56:41.248Z,8.00
2019-04-14T07:59:23.401Z,8.10
2019-04-14T08:01:55.452Z,7.80
2019-04-14T08:04:26.390Z,7.80
2019-04-14T08:06:56.179Z,7.70
2019-04-14T08:09:25.485Z,7.60
2019-04-14T08:11:54.837Z,7.90
2019-04-14T08:14:24.140Z,8.20
2019-04-14T08:16:53.539Z,8.30
2019-04-14T08:19:23.902Z,8.50
2019-04-14T08:21:53.223Z,8.50
2019-04-14T08:24:24.143Z,8.50
2019-04-14T08:26:53.468Z,8.90
2019-04-14T08:29:22.765Z,8.80
2019-04-14T08:31:52.080Z,9.30
2019-04-14T08:34:21.394Z,9.40
2019-04-14T08:36:50.716Z,9.40
2019-04-14T08:42:06.056Z,9.30
2019-04-14T08:44:42.993Z,9.00
2019-04-14T08:47:16.843Z,9.50
2019-04-14T08:49:59.734Z,9.50
2019-04-14T08:52:31.596Z,9.80
2019-04-14T08:55:02.699Z,9.90
2019-04-14T08:57:49.902Z,10.40
2019-04-14T09:00:20.937Z,10.70
2019-04-14T09:02:54.052Z,11.10
2019-04-14T09:05:30.651Z,11.20
2019-04-14T09:08:01.636Z,11.10
2019-04-14T09:10:32.861Z,11.60
2019-04-14T09:13:02.150Z,11.60
2019-04-14T09:15:31.505Z,11.30
2019-04-14T09:18:01.737Z,11.30
2019-04-14T09:20:31.885Z,11.10
2019-04-14T09:23:01.984Z,11.30
2019-04-14T09:25:32.214Z,11.40
2019-04-14T09:28:02.228Z,11.20
2019-04-14T09:30:32.383Z,11.40
2019-04-14T09:33:05.688Z,12.00
2019-04-14T09:35:35.033Z,11.80
2019-04-14T09:38:04.487Z,11.50
2019-04-14T09:40:33.874Z,11.20
2019-04-14T09:43:04.355Z,11.30
2019-04-14T09:45:33.682Z,11.20
2019-04-14T09:48:03.466Z,11.40
2019-04-14T09:50:33.802Z,11.70
2019-04-14T09:53:03.767Z,11.80
2019-04-14T09:55:33.798Z,11.90
2019-04-14T09:58:04.107Z,11.90
2019-04-14T10:00:35.264Z,12.30
2019-04-14T10:03:04.745Z,12.90
2019-04-14T10:05:34.344Z,13.30
2019-04-14T10:08:04.646Z,13.30
2019-04-14T10:10:34.721Z,13.10
2019-04-14T10:13:05.134Z,13.10
2019-04-14T10:15:34.988Z,13.30
2019-04-14T10:18:05.230Z,13.40
2019-04-14T10:20:35.329Z,13.60
2019-04-14T10:23:05.460Z,13.30
2019-04-14T10:25:35.558Z,13.20
2019-04-14T10:28:05.803Z,13.10
2019-04-14T10:30:35.855Z,13.00
2019-04-14T10:33:06.087Z,13.10
2019-04-14T10:35:36.134Z,13.40
2019-04-14T10:38:06.376Z,13.30
2019-04-14T10:40:36.497Z,13.30
2019-04-14T10:43:06.740Z,13.50
2019-04-14T10:45:38.651Z,13.80
2019-04-14T10:48:07.991Z,13.90
2019-04-14T10:50:37.289Z,13.40
2019-04-14T10:53:07.230Z,13.20
2019-04-14T10:55:37.451Z,13.50
2019-04-14T10:58:07.606Z,13.20
2019-04-14T11:00:37.718Z,13.00
2019-04-14T11:03:07.954Z,13.20
2019-04-14T11:05:39.683Z,13.30
2019-04-14T11:08:09.015Z,13.90
2019-04-14T11:10:38.373Z,13.80
2019-04-14T11:13:08.610Z,13.90
2019-04-14T11:15:38.670Z,13.70
2019-04-14T11:18:08.931Z,14.20
2019-04-14T11:20:38.954Z,13.90
2019-04-14T11:23:09.225Z,14.00
2019-04-14T11:25:39.267Z,14.40
2019-04-14T11:28:09.515Z,14.40
2019-04-14T11:30:39.652Z,14.60
2019-04-14T11:33:11.383Z,14.60
2019-04-14T11:35:51.273Z,14.90
2019-04-14T11:38:24.996Z,14.90
2019-04-14T11:40:55.971Z,14.80
2019-04-14T11:43:25.284Z,14.60
2019-04-14T11:45:54.657Z,14.60
2019-04-14T11:48:25.805Z,14.40
2019-04-14T11:50:55.158Z,14.70
2019-04-14T11:53:24.481Z,14.60
2019-04-14T11:55:53.790Z,14.80
2019-04-14T11:58:23.090Z,15.00
2019-04-14T12:01:00.074Z,13.90
2019-04-14T12:03:39.826Z,14.20
2019-04-14T12:06:29.082Z,14.30
2019-04-14T12:09:16.155Z,14.90
2019-04-14T12:11:45.449Z,14.90
2019-04-14T12:14:14.745Z,14.80
2019-04-14T12:16:44.074Z,14.80
2019-04-14T12:19:13.402Z,15.10
2019-04-14T12:21:42.715Z,14.80
2019-04-14T12:24:12.990Z,15.20
2019-04-14T12:26:42.958Z,15.00
2019-04-14T12:29:14.113Z,15.50
2019-04-14T12:31:44.088Z,15.50
2019-04-14T12:34:18.256Z,15.60
2019-04-14T12:36:47.758Z,15.50
2019-04-14T12:39:22.877Z,15.00
2019-04-14T12:41:59.822Z,15.20
2019-04-14T12:44:45.652Z,15.30
2019-04-14T12:47:39.542Z,15.80
2019-04-14T12:50:10.153Z,15.90
2019-04-14T12:52:39.445Z,16.10
2019-04-14T12:55:08.831Z,15.80
2019-04-14T12:57:39.798Z,15.80
2019-04-14T13:00:11.139Z,15.50
2019-04-14T13:02:42.138Z,15.80
2019-04-14T13:05:11.542Z,15.80
2019-04-14T13:07:40.865Z,15.80
2019-04-14T13:10:10.421Z,15.80
2019-04-14T13:12:39.733Z,16.00
2019-04-14T13:15:09.326Z,15.50
2019-04-14T13:17:38.638Z,15.50
2019-04-14T13:20:09.198Z,15.00
2019-04-14T13:22:38.576Z,14.90
2019-04-14T13:25:08.884Z,14.80
2019-04-14T13:27:38.377Z,15.10
2019-04-14T13:30:11.442Z,15.30
2019-04-14T13:33:50.387Z,15.50
2019-04-14T13:35:18.199Z,15.80
2019-04-14T13:37:47.515Z,15.60
2019-04-14T13:40:17.458Z,14.80
2019-04-14T13:42:49.398Z,13.90
2019-04-14T13:45:18.735Z,14.20
2019-04-14T13:47:48.056Z,14.60
2019-04-14T13:50:17.969Z,14.80
2019-04-14T13:52:48.151Z,14.80
2019-04-14T13:55:18.399Z,15.20
2019-04-14T13:57:48.467Z,15.20
2019-04-14T14:00:19.127Z,15.60
2019-04-14T14:02:48.733Z,15.30
2019-04-14T14:05:18.904Z,14.70
2019-04-14T14:07:49.033Z,14.70
2019-04-14T14:10:19.338Z,14.70
2019-04-14T14:12:59.585Z,14.70
2019-04-14T14:15:42.378Z,15.00
2019-04-14T14:18:31.590Z,14.70
2019-04-14T14:21:02.541Z,13.80
2019-04-14T14:23:49.538Z,13.80
2019-04-14T14:26:23.554Z,13.70
2019-04-14T14:28:52.870Z,13.90
2019-04-14T14:31:22.381Z,13.90
2019-04-14T14:33:51.695Z,13.60
2019-04-14T14:36:22.536Z,13.30
2019-04-14T14:38:51.881Z,13.10
2019-04-14T14:41:21.239Z,12.70
2019-04-14T14:43:51.286Z,12.60
2019-04-14T14:46:29.024Z,12.30
2019-04-14T14:49:00.010Z,12.20
2019-04-14T14:51:32.868Z,12.10
2019-04-14T14:54:02.075Z,12.20
2019-04-14T14:56:31.470Z,12.30
2019-04-14T14:59:00.808Z,12.30
2019-04-14T15:01:30.103Z,12.30
2019-04-14T15:03:59.418Z,12.30
2019-04-14T15:06:28.743Z,12.40
2019-04-14T15:08:58.242Z,12.60
2019-04-14T15:11:27.547Z,12.80
2019-04-14T15:13:56.878Z,12.50
2019-04-14T15:16:26.272Z,12.30
2019-04-14T15:18:55.575Z,12.00
2019-04-14T15:21:24.952Z,11.90
2019-04-14T15:23:54.359Z,12.00
2019-04-14T15:26:24.462Z,11.80
2019-04-14T15:28:54.631Z,11.70
2019-04-14T15:31:24.856Z,11.80
2019-04-14T15:33:54.969Z,11.80
2019-04-14T15:36:25.362Z,11.80
2019-04-14T15:38:55.248Z,11.80
2019-04-14T15:41:25.495Z,11.70
2019-04-14T15:43:55.561Z,11.80
2019-04-14T15:46:25.701Z,11.90
2019-04-14T15:48:56.118Z,11.90
2019-04-14T15:51:26.096Z,12.00
2019-04-14T15:53:56.139Z,12.20
2019-04-14T15:56:31.060Z,12.10
2019-04-14T15:59:08.056Z,11.90
2019-04-14T16:01:38.996Z,11.50
2019-04-14T16:04:15.861Z,11.40
2019-04-14T16:06:46.805Z,11.00
2019-04-14T16:09:35.755Z,10.80
2019-04-14T16:12:09.368Z,10.80
2019-04-14T16:14:40.413Z,11.00
2019-04-14T16:17:27.293Z,11.20
2019-04-14T16:19:59.248Z,11.30
2019-04-14T16:22:28.610Z,11.40
2019-04-14T16:24:57.941Z,11.40
2019-04-14T16:27:35.927Z,11.30
2019-04-14T16:30:07.825Z,11.10
2019-04-14T16:32:54.049Z,10.90
2019-04-14T16:35:30.617Z,10.80
2019-04-14T16:37:59.938Z,10.60
2019-04-14T16:40:29.333Z,10.60
2019-04-14T16:42:59.103Z,10.60
2019-04-14T16:45:29.153Z,10.60
2019-04-14T16:47:59.351Z,10.70
2019-04-14T16:50:29.425Z,10.70
2019-04-14T16:53:01.196Z,10.70
2019-04-14T16:55:33.209Z,10.50
2019-04-14T16:58:04.158Z,10.40
2019-04-14T17:00:37.113Z,10.30
2019-04-14T17:03:06.257Z,10.20
2019-04-14T17:05:35.621Z,10.20
2019-04-14T17:08:04.930Z,10.20
2019-04-14T17:10:34.337Z,10.20
2019-04-14T17:13:03.935Z,10.20
2019-04-14T17:15:34.962Z,10.00
2019-04-14T17:18:05.979Z,10.00
2019-04-14T17:20:36.934Z,9.90
2019-04-14T17:23:07.953Z,9.90
2019-04-14T17:25:38.967Z,9.80
2019-04-14T17:28:15.898Z,9.70
2019-04-14T17:30:46.904Z,9.80
2019-04-14T17:33:20.038Z,9.70
2019-04-14T17:36:09.998Z,9.70
2019-04-14T17:38:40.993Z,9.70
2019-04-14T17:41:26.639Z,9.70
2019-04-14T17:43:57.708Z,9.60
2019-04-14T17:46:28.637Z,9.60
2019-04-14T17:49:02.435Z,9.50
2019-04-14T17:51:37.505Z,9.40
2019-04-14T17:54:08.614Z,9.30
2019-04-14T17:56:39.559Z,9.10
2019-04-14T17:59:15.294Z,9.00
2019-04-14T18:01:46.156Z,8.90
2019-04-14T18:04:30.683Z,8.90
2019-04-14T18:07:01.638Z,8.90
2019-04-14T18:09:49.016Z,8.90
2019-04-14T18:12:22.851Z,8.90
2019-04-14T18:14:53.783Z,8.90
2019-04-14T18:17:27.676Z,8.90
2019-04-14T18:20:01.385Z,8.90
2019-04-14T18:22:30.961Z,8.80
2019-04-14T18:25:00.345Z,8.70
2019-04-14T18:27:31.291Z,8.60
2019-04-14T18:30:01.595Z,8.60
2019-04-14T18:32:32.988Z,8.50
2019-04-14T18:35:06.709Z,8.50
2019-04-14T18:37:40.528Z,8.50
2019-04-14T18:40:26.383Z,8.40
2019-04-14T18:43:02.819Z,8.40
2019-04-14T18:45:36.681Z,8.30
2019-04-14T18:48:24.187Z,8.30
2019-04-14T18:51:11.827Z,8.20
2019-04-14T18:53:45.512Z,8.10
2019-04-14T18:56:25.566Z,8.20
2019-04-14T18:59:12.575Z,8.20
2019-04-14T19:01:43.572Z,8.30
2019-04-14T19:04:12.877Z,8.30
2019-04-14T19:06:42.204Z,8.30
2019-04-14T19:09:11.610Z,8.40
2019-04-14T19:11:45.446Z,8.30
2019-04-14T19:14:16.415Z,8.40
2019-04-14T19:16:47.426Z,8.40
2019-04-14T19:19:17.580Z,8.30
2019-04-14T19:21:46.840Z,8.30
2019-04-14T19:24:16.146Z,8.30
2019-04-14T19:26:45.463Z,8.30
2019-04-14T19:29:15.025Z,8.30
2019-04-14T19:31:44.355Z,8.40
2019-04-14T19:34:13.672Z,8.40
2019-04-14T19:36:42.992Z,8.30
2019-04-14T19:39:13.222Z,8.30
2019-04-14T19:41:42.608Z,8.30
2019-04-14T19:44:11.901Z,8.30
2019-04-14T19:46:42.614Z,8.30
2019-04-14T19:49:11.924Z,8.30
2019-04-14T19:51:41.352Z,8.20
2019-04-14T19:54:10.653Z,8.20
2019-04-14T19:56:40.682Z,8.30
2019-04-14T19:59:10.699Z,8.20
2019-04-14T20:01:40.916Z,8.20
2019-04-14T20:04:11.025Z,8.10
2019-04-14T20:06:41.283Z,8.10
2019-04-14T20:09:11.340Z,8.10
2019-04-14T20:11:41.485Z,8.10
2019-04-14T20:14:11.753Z,8.10
2019-04-14T20:16:45.949Z,8.10
2019-04-14T20:19:19.647Z,8.00
2019-04-14T20:21:53.396Z,8.00
2019-04-14T20:24:39.798Z,8.00
2019-04-14T20:27:13.303Z,8.10
2019-04-14T20:29:47.083Z,8.00
2019-04-14T20:32:16.968Z,7.90
2019-04-14T20:34:46.282Z,7.90
2019-04-14T20:37:15.794Z,7.90
2019-04-14T20:39:45.147Z,7.80
2019-04-14T20:42:14.526Z,7.80
2019-04-14T20:44:43.848Z,7.80
2019-04-14T20:47:13.756Z,7.80
2019-04-14T20:49:44.783Z,7.80
2019-04-14T20:52:14.149Z,7.90
2019-04-14T20:54:44.098Z,7.80
2019-04-14T20:57:14.374Z,7.90
2019-04-14T20:59:44.467Z,7.80
2019-04-14T21:02:22.332Z,7.70
2019-04-14T21:05:09.630Z,7.60
2019-04-14T21:07:46.369Z,7.50
2019-04-14T21:10:17.363Z,7.40
2019-04-14T21:12:50.248Z,7.30
2019-04-14T21:15:23.778Z,7.10
2019-04-14T21:18:03.226Z,7.00
2019-04-14T21:20:34.316Z,6.90
2019-04-14T21:23:05.260Z,6.80
2019-04-14T21:25:36.222Z,6.70
2019-04-14T21:28:06.385Z,6.50
2019-04-14T21:30:37.307Z,6.50
2019-04-14T21:33:11.299Z,6.40
2019-04-14T21:35:49.414Z,6.30
2019-04-14T21:38:20.952Z,6.20
2019-04-14T21:40:57.346Z,6.10
2019-04-14T21:43:26.668Z,6.00
2019-04-14T21:45:55.974Z,5.90
2019-04-14T21:48:25.279Z,5.90
2019-04-14T21:50:54.608Z,5.80
2019-04-14T21:53:23.924Z,5.80
2019-04-14T21:55:53.230Z,5.70
2019-04-14T21:58:27.169Z,5.60
2019-04-14T22:01:33.910Z,5.60
2019-04-14T22:04:18.184Z,5.50
2019-04-14T22:06:55.794Z,5.40
2019-04-14T22:09:32.949Z,5.30
2019-04-14T22:12:04.054Z,5.30
2019-04-14T22:14:33.390Z,5.20
2019-04-14T22:17:02.691Z,5.20
2019-04-14T22:19:38.411Z,5.10
2019-04-14T22:22:07.750Z,5.10
2019-04-14T22:24:37.045Z,5.00
2019-04-14T22:27:06.381Z,5.00
2019-04-14T22:29:35.679Z,5.10
2019-04-14T22:32:04.978Z,5.10
2019-04-14T22:34:34.286Z,5.00
2019-04-14T22:37:03.599Z,5.00
2019-04-14T22:39:32.983Z,4.90
2019-04-14T22:42:02.394Z,4.70
2019-04-14T22:44:31.711Z,4.70
2019-04-14T22:47:01.024Z,4.70
2019-04-14T22:49:30.436Z,4.60
2019-04-14T22:51:59.775Z,4.60
2019-04-14T22:54:29.096Z,4.60
2019-04-14T22:56:58.421Z,4.50
2019-04-14T22:59:27.732Z,4.50
2019-04-14T23:02:01.501Z,4.40
2019-04-14T23:04:32.480Z,4.30
2019-04-14T23:07:11.425Z,4.30
2019-04-14T23:09:48.438Z,4.20
2019-04-14T23:12:28.157Z,4.10
2019-04-14T23:15:08.097Z,4.10
2019-04-14T23:17:51.088Z,4.10
2019-04-14T23:20:24.641Z,4.00
2019-04-14T23:23:04.129Z,4.00
2019-04-14T23:25:33.641Z,4.00
2019-04-14T23:28:03.018Z,4.00
2019-04-14T23:30:32.319Z,4.10
2019-04-14T23:33:01.645Z,4.20
2019-04-14T23:35:31.964Z,4.40
2019-04-14T23:38:02.268Z,4.50
2019-04-14T23:40:31.839Z,4.60
2019-04-14T23:43:01.131Z,4.80
2019-04-14T23:45:30.423Z,5.00
2019-04-14T23:47:59.733Z,5.10
2019-04-14T23:50:29.138Z,5.20
2019-04-14T23:52:58.516Z,5.30
2019-04-14T23:55:27.919Z,5.30
2019-04-14T23:57:57.372Z,5.30
